createdAt,value
2019-01-16T00:01:15.787Z,100.00
2019-01-16T00:03:43.539Z,100.00
2019-01-16T00:06:14.051Z,100.00
2019-01-16T00:08:47.767Z,100.00
2019-01-16T00:11:18.687Z,100.00
2019-01-16T00:13:58.582Z,100.00
2019-01-16T00:16:26.313Z,100.00
2019-01-16T00:18:57.095Z,100.00
2019-01-16T00:21:36.949Z,100.00
2019-01-16T00:24:17.040Z,100.00
2019-01-16T00:26:47.806Z,100.00
2019-01-16T00:29:18.465Z,100.00
2019-01-16T00:31:46.186Z,100.00
2019-01-16T00:34:13.903Z,100.00
2019-01-16T00:36:41.656Z,100.00
2019-01-16T00:39:09.392Z,100.00
2019-01-16T00:41:37.125Z,100.00
2019-01-16T00:44:05.257Z,100.00
2019-01-16T00:46:41.823Z,100.00
2019-01-16T00:49:21.482Z,100.00
2019-01-16T00:51:52.233Z,100.00
2019-01-16T00:54:25.753Z,100.00
2019-01-16T00:56:59.570Z,100.00
2019-01-16T00:59:33.377Z,100.00
2019-01-16T01:02:01.149Z,100.00
2019-01-16T01:04:28.875Z,100.00
2019-01-16T01:07:02.778Z,100.00
2019-01-16T01:09:33.505Z,100.00
2019-01-16T01:12:01.239Z,100.00
2019-01-16T01:14:32.007Z,100.00
2019-01-16T01:17:02.807Z,100.00
2019-01-16T01:19:30.550Z,100.00
2019-01-16T01:22:04.083Z,100.00
2019-01-16T01:24:48.814Z,100.00
2019-01-16T01:27:33.252Z,100.00
2019-01-16T01:30:07.125Z,100.00
2019-01-16T01:32:44.217Z,100.00
2019-01-16T01:35:21.053Z,100.00
2019-01-16T01:38:05.411Z,100.00
2019-01-16T01:40:45.239Z,100.00
2019-01-16T01:43:15.606Z,100.00
2019-01-16T01:45:43.412Z,100.00
2019-01-16T01:48:23.026Z,100.00
2019-01-16T01:51:03.310Z,100.00
2019-01-16T01:53:31.053Z,100.00
2019-01-16T01:56:04.943Z,100.00
2019-01-16T01:58:32.673Z,100.00
2019-01-16T02:01:00.398Z,100.00
2019-01-16T02:03:30.937Z,100.00
2019-01-16T02:06:13.722Z,100.00
2019-01-16T02:08:56.476Z,100.00
2019-01-16T02:11:30.231Z,100.00
2019-01-16T02:14:01.008Z,100.00
2019-01-16T02:16:28.762Z,100.00
2019-01-16T02:19:02.112Z,100.00
2019-01-16T02:21:32.710Z,100.00
2019-01-16T02:24:17.967Z,100.00
2019-01-16T02:26:45.787Z,100.00
2019-01-16T02:29:25.885Z,100.00
2019-01-16T02:31:56.330Z,100.00
2019-01-16T02:34:24.076Z,100.00
2019-01-16T02:36:54.637Z,100.00
2019-01-16T02:39:22.358Z,100.00
2019-01-16T02:41:52.930Z,100.00
2019-01-16T02:44:23.438Z,100.00
2019-01-16T02:46:51.175Z,100.00
2019-01-16T02:49:21.826Z,100.00
2019-01-16T02:51:52.317Z,100.00
2019-01-16T02:54:22.562Z,100.00
2019-01-16T02:57:05.385Z,100.00
2019-01-16T02:59:45.211Z,100.00
2019-01-16T03:02:21.545Z,100.00
2019-01-16T03:04:49.482Z,100.00
2019-01-16T03:07:23.478Z,100.00
2019-01-16T03:09:53.994Z,100.00
2019-01-16T03:12:38.360Z,100.00
2019-01-16T03:15:11.630Z,100.00
2019-01-16T03:17:55.934Z,100.00
2019-01-16T03:20:40.230Z,100.00
2019-01-16T03:23:20.021Z,100.00
2019-01-16T03:25:51.013Z,100.00
2019-01-16T03:28:35.038Z,100.00
2019-01-16T03:31:05.580Z,100.00
2019-01-16T03:33:49.721Z,100.00
2019-01-16T03:36:17.582Z,100.00
2019-01-16T03:38:45.328Z,100.00
2019-01-16T03:41:13.065Z,100.00
2019-01-16T03:43:40.944Z,100.00
2019-01-16T03:46:11.430Z,100.00
2019-01-16T03:48:39.171Z,100.00
2019-01-16T03:51:09.681Z,100.00
2019-01-16T03:53:40.306Z,100.00
2019-01-16T03:56:11.073Z,100.00
2019-01-16T03:58:41.583Z,100.00
2019-01-16T04:01:27.665Z,100.00
2019-01-16T04:03:55.403Z,100.00
2019-01-16T04:06:29.424Z,100.00
2019-01-16T04:09:03.055Z,100.00
2019-01-16T04:11:30.791Z,100.00
2019-01-16T04:14:15.643Z,100.00
2019-01-16T04:16:49.174Z,100.00
2019-01-16T04:19:33.625Z,100.00
2019-01-16T04:22:01.345Z,100.00
2019-01-16T04:24:45.711Z,100.00
2019-01-16T04:27:22.538Z,100.00
2019-01-16T04:29:50.294Z,100.00
2019-01-16T04:32:24.085Z,100.00
2019-01-16T04:35:00.669Z,100.00
2019-01-16T04:37:31.199Z,100.00
2019-01-16T04:40:14.358Z,100.00
2019-01-16T04:42:42.073Z,100.00
2019-01-16T04:45:26.711Z,100.00
2019-01-16T04:48:06.387Z,100.00
2019-01-16T04:50:51.146Z,100.00
2019-01-16T04:53:18.897Z,100.00
2019-01-16T04:55:52.463Z,100.00
2019-01-16T04:58:32.445Z,100.00
2019-01-16T05:01:15.271Z,100.00
2019-01-16T05:03:43.001Z,100.00
2019-01-16T05:06:13.795Z,100.00
2019-01-16T05:08:41.548Z,100.00
2019-01-16T05:11:18.367Z,100.00
2019-01-16T05:13:48.852Z,100.00
2019-01-16T05:16:22.667Z,100.00
2019-01-16T05:19:08.577Z,100.00
2019-01-16T05:21:54.741Z,100.00
2019-01-16T05:24:22.461Z,100.00
2019-01-16T05:26:50.211Z,100.00
2019-01-16T05:29:17.942Z,100.00
2019-01-16T05:31:45.704Z,100.00
2019-01-16T05:34:13.492Z,100.00
2019-01-16T05:36:56.407Z,100.00
2019-01-16T05:39:39.521Z,100.00
2019-01-16T05:42:16.381Z,100.00
2019-01-16T05:44:50.137Z,100.00
2019-01-16T05:47:17.889Z,100.00
2019-01-16T05:49:46.814Z,100.00
2019-01-16T05:52:17.692Z,100.00
2019-01-16T05:54:57.422Z,100.00
2019-01-16T05:57:25.183Z,100.00
2019-01-16T05:59:55.678Z,100.00
2019-01-16T06:02:29.203Z,100.00
2019-01-16T06:05:02.816Z,100.00
2019-01-16T06:07:39.768Z,100.00
2019-01-16T06:10:27.772Z,100.00
2019-01-16T06:13:12.215Z,100.00
2019-01-16T06:15:45.735Z,100.00
2019-01-16T06:18:13.516Z,100.00
2019-01-16T06:20:47.059Z,100.00
2019-01-16T06:23:29.909Z,100.00
2019-01-16T06:26:03.507Z,100.00
2019-01-16T06:28:31.272Z,100.00
2019-01-16T06:31:02.021Z,100.00
2019-01-16T06:33:35.763Z,100.00
2019-01-16T06:36:06.283Z,100.00
2019-01-16T06:38:34.012Z,100.00
2019-01-16T06:41:01.866Z,100.00
2019-01-16T06:43:35.684Z,100.00
2019-01-16T06:46:03.436Z,100.00
2019-01-16T06:48:46.558Z,100.00
2019-01-16T06:51:14.335Z,100.00
2019-01-16T06:53:54.304Z,100.00
2019-01-16T06:56:22.067Z,100.00
2019-01-16T06:58:58.727Z,100.00
2019-01-16T07:01:35.130Z,100.00
2019-01-16T07:04:02.991Z,100.00
2019-01-16T07:06:36.752Z,100.00
2019-01-16T07:09:07.886Z,100.00
2019-01-16T07:11:35.622Z,100.00
2019-01-16T07:14:03.508Z,100.00
2019-01-16T07:16:34.311Z,100.00
2019-01-16T07:19:14.152Z,100.00
2019-01-16T07:21:42.013Z,100.00
2019-01-16T07:24:12.771Z,100.00
2019-01-16T07:26:40.492Z,100.00
2019-01-16T07:29:08.218Z,100.00
2019-01-16T07:31:48.057Z,100.00
2019-01-16T07:34:27.525Z,100.00
2019-01-16T07:37:07.025Z,100.00
2019-01-16T07:39:37.761Z,100.00
2019-01-16T07:42:20.647Z,100.00
2019-01-16T07:45:06.388Z,100.00
2019-01-16T07:47:39.949Z,100.00
2019-01-16T07:50:17.709Z,100.00
2019-01-16T07:52:51.832Z,100.00
2019-01-16T07:55:36.070Z,100.00
2019-01-16T07:58:06.605Z,100.00
2019-01-16T08:00:37.156Z,100.00
2019-01-16T08:03:14.266Z,100.00
2019-01-16T08:05:58.525Z,100.00
2019-01-16T08:08:29.038Z,100.00
2019-01-16T08:11:13.300Z,100.00
2019-01-16T08:13:57.640Z,100.00
2019-01-16T08:16:42.171Z,100.00
2019-01-16T08:19:26.393Z,100.00
2019-01-16T08:22:10.671Z,100.00
2019-01-16T08:24:47.357Z,100.00
2019-01-16T08:27:20.979Z,100.00
2019-01-16T08:29:51.774Z,100.00
2019-01-16T08:32:31.487Z,100.00
2019-01-16T08:35:11.611Z,100.00
2019-01-16T08:37:42.182Z,100.00
2019-01-16T08:40:13.781Z,100.00
2019-01-16T08:42:41.522Z,100.00
2019-01-16T08:45:10.480Z,100.00
2019-01-16T08:47:47.291Z,100.00
2019-01-16T08:50:15.235Z,100.00
2019-01-16T08:52:48.585Z,100.00
2019-01-16T08:55:25.226Z,100.00
2019-01-16T08:58:09.730Z,100.00
2019-01-16T09:00:54.079Z,100.00
2019-01-16T09:03:22.152Z,100.00
2019-01-16T09:06:06.788Z,100.00
2019-01-16T09:08:51.192Z,100.00
2019-01-16T09:11:28.090Z,100.00
2019-01-16T09:14:02.114Z,100.00
2019-01-16T09:16:29.861Z,100.00
2019-01-16T09:19:03.171Z,100.00
2019-01-16T09:21:47.706Z,100.00
2019-01-16T09:24:15.449Z,100.00
2019-01-16T09:27:00.308Z,100.00
2019-01-16T09:29:33.832Z,100.00
2019-01-16T09:32:18.451Z,100.00
2019-01-16T09:34:52.208Z,100.00
2019-01-16T09:37:38.092Z,100.00
2019-01-16T09:40:24.115Z,100.00
2019-01-16T09:43:01.169Z,100.00
2019-01-16T09:45:45.523Z,100.00
2019-01-16T09:48:19.061Z,100.00
2019-01-16T09:50:48.034Z,100.00
2019-01-16T09:53:19.066Z,100.00
2019-01-16T09:55:58.981Z,100.00
2019-01-16T09:58:26.721Z,100.00
2019-01-16T10:01:06.694Z,100.00
2019-01-16T10:03:49.521Z,100.00
2019-01-16T10:06:23.113Z,100.00
2019-01-16T10:08:50.876Z,100.00
2019-01-16T10:11:30.255Z,100.00
2019-01-16T10:13:58.118Z,99.50
2019-01-16T10:16:44.263Z,99.11
2019-01-16T10:19:24.249Z,99.77
2019-01-16T10:21:57.960Z,99.17
2019-01-16T10:24:26.020Z,98.96
2019-01-16T10:27:10.730Z,98.76
2019-01-16T10:29:55.162Z,98.47
2019-01-16T10:32:22.898Z,97.59
2019-01-16T10:34:50.665Z,97.45
2019-01-16T10:37:35.327Z,96.12
2019-01-16T10:40:18.270Z,94.95
2019-01-16T10:42:52.023Z,94.98
2019-01-16T10:45:22.644Z,96.10
2019-01-16T10:47:50.378Z,96.33
2019-01-16T10:50:24.430Z,95.59
2019-01-16T10:52:55.406Z,95.35
2019-01-16T10:55:26.226Z,93.86
2019-01-16T10:57:56.733Z,94.56
2019-01-16T11:00:24.470Z,94.34
2019-01-16T11:02:58.021Z,94.20
2019-01-16T11:05:34.963Z,93.87
2019-01-16T11:08:11.899Z,93.23
2019-01-16T11:10:39.645Z,93.20
2019-01-16T11:13:07.404Z,92.80
2019-01-16T11:15:47.268Z,93.79
2019-01-16T11:18:20.817Z,92.58
2019-01-16T11:21:10.916Z,92.96
2019-01-16T11:23:43.308Z,92.91
2019-01-16T11:26:26.152Z,92.84
2019-01-16T11:28:59.815Z,93.18
2019-01-16T11:31:42.560Z,92.25
2019-01-16T11:34:27.179Z,92.69
2019-01-16T11:37:00.960Z,91.89
2019-01-16T11:39:37.966Z,91.94
2019-01-16T11:42:08.618Z,91.26
2019-01-16T11:44:36.371Z,92.19
2019-01-16T11:47:16.196Z,91.06
2019-01-16T11:49:43.925Z,89.75
2019-01-16T11:52:11.664Z,89.39
2019-01-16T11:57:41.981Z,88.96
2019-01-16T12:00:31.617Z,88.82
2019-01-16T12:03:02.424Z,88.83
2019-01-16T12:05:39.165Z,88.22
2019-01-16T12:08:07.121Z,88.40
2019-01-16T12:10:37.854Z,89.01
2019-01-16T12:13:11.605Z,88.99
2019-01-16T12:15:39.362Z,88.79
2019-01-16T12:18:07.186Z,88.46
2019-01-16T12:20:51.200Z,87.07
2019-01-16T12:23:30.807Z,87.11
2019-01-16T12:25:58.596Z,86.82
2019-01-16T12:28:35.447Z,85.89
2019-01-16T12:31:19.982Z,86.12
2019-01-16T12:33:59.820Z,86.80
2019-01-16T12:36:27.583Z,86.60
2019-01-16T12:38:58.144Z,85.70
2019-01-16T12:41:31.893Z,85.35
2019-01-16T12:43:59.641Z,85.87
2019-01-16T12:46:27.475Z,85.26
2019-01-16T12:49:12.115Z,85.54
2019-01-16T12:51:45.674Z,84.40
2019-01-16T12:54:32.074Z,84.96
2019-01-16T12:57:02.622Z,85.15
2019-01-16T12:59:35.919Z,84.24
2019-01-16T13:02:10.335Z,83.83
2019-01-16T13:04:38.079Z,84.65
2019-01-16T13:07:20.898Z,85.10
2019-01-16T13:10:03.786Z,85.10
2019-01-16T13:12:31.529Z,85.70
2019-01-16T13:15:05.475Z,84.44
2019-01-16T13:17:49.769Z,83.88
2019-01-16T13:20:17.523Z,83.72
2019-01-16T13:22:57.562Z,83.87
2019-01-16T13:25:25.404Z,82.87
2019-01-16T13:28:05.260Z,81.78
2019-01-16T13:30:44.815Z,80.37
2019-01-16T13:33:18.679Z,79.63
2019-01-16T13:36:03.388Z,78.81
2019-01-16T13:38:31.219Z,79.19
2019-01-16T13:41:04.785Z,78.30
2019-01-16T13:43:50.710Z,78.16
2019-01-16T13:46:33.595Z,77.94
2019-01-16T13:49:01.321Z,79.62
2019-01-16T13:51:31.882Z,80.46
2019-01-16T13:54:16.326Z,79.71
2019-01-16T13:57:01.023Z,78.92
2019-01-16T13:59:31.805Z,78.66
2019-01-16T14:01:59.537Z,76.62
2019-01-16T14:04:30.304Z,77.14
2019-01-16T14:07:01.051Z,76.41
2019-01-16T14:09:28.800Z,76.23
2019-01-16T14:11:59.353Z,76.44
2019-01-16T14:17:23.631Z,78.94
2019-01-16T14:19:57.180Z,79.99
2019-01-16T14:22:27.734Z,80.46
2019-01-16T14:24:55.481Z,80.24
2019-01-16T14:27:25.732Z,79.76
2019-01-16T14:29:53.485Z,80.66
2019-01-16T14:32:33.480Z,80.94
2019-01-16T14:35:13.470Z,81.60
2019-01-16T14:37:56.095Z,82.21
2019-01-16T14:40:23.944Z,82.97
2019-01-16T14:42:54.469Z,83.70
2019-01-16T14:45:34.240Z,83.15
2019-01-16T14:48:07.811Z,83.78
2019-01-16T14:50:41.569Z,84.69
2019-01-16T14:53:11.847Z,88.60
2019-01-16T14:55:39.672Z,84.08
2019-01-16T14:58:24.333Z,84.65
2019-01-16T15:00:52.587Z,85.37
2019-01-16T15:03:27.859Z,85.42
2019-01-16T15:05:59.526Z,85.70
2019-01-16T15:08:45.905Z,85.64
2019-01-16T15:11:31.757Z,85.85
2019-01-16T15:13:59.528Z,86.26
2019-01-16T15:16:36.292Z,87.31
2019-01-16T15:19:10.033Z,87.31
2019-01-16T15:21:43.787Z,87.97
2019-01-16T15:24:11.648Z,87.64
2019-01-16T15:26:45.467Z,88.13
2019-01-16T15:29:15.971Z,87.83
2019-01-16T15:31:49.479Z,88.67
2019-01-16T15:34:23.306Z,89.31
2019-01-16T15:36:57.029Z,89.52
2019-01-16T15:39:39.680Z,89.35
2019-01-16T15:42:07.446Z,90.14
2019-01-16T15:44:35.175Z,90.28
2019-01-16T15:47:05.727Z,91.10
2019-01-16T15:49:50.182Z,90.76
2019-01-16T15:52:20.744Z,90.99
2019-01-16T15:55:05.394Z,91.39
2019-01-16T15:57:33.157Z,91.39
2019-01-16T16:00:00.899Z,91.81
2019-01-16T16:02:34.464Z,92.27
2019-01-16T16:05:18.779Z,92.73
2019-01-16T16:07:52.477Z,93.19
2019-01-16T16:10:23.024Z,93.31
2019-01-16T16:12:53.540Z,93.33
2019-01-16T16:15:27.267Z,93.40
2019-01-16T16:18:01.019Z,94.11
2019-01-16T16:20:45.396Z,95.19
2019-01-16T16:23:24.993Z,96.37
2019-01-16T16:25:55.238Z,95.49
2019-01-16T16:28:26.218Z,94.55
2019-01-16T16:30:59.725Z,94.64
2019-01-16T16:33:44.298Z,95.67
2019-01-16T16:36:18.124Z,94.47
2019-01-16T16:38:52.109Z,96.16
2019-01-16T16:41:36.752Z,97.29
2019-01-16T16:44:07.793Z,97.42
2019-01-16T16:46:44.920Z,98.02
2019-01-16T16:49:27.765Z,98.52
2019-01-16T16:52:10.599Z,98.03
2019-01-16T16:54:50.450Z,98.55
2019-01-16T16:57:18.194Z,98.94
2019-01-16T16:59:51.981Z,98.13
2019-01-16T17:02:28.826Z,98.33
2019-01-16T17:05:05.489Z,99.32
2019-01-16T17:07:33.222Z,100.00
2019-01-16T17:10:00.976Z,100.00
2019-01-16T17:12:37.342Z,100.00
2019-01-16T17:15:14.653Z,100.00
2019-01-16T17:17:59.327Z,100.00
2019-01-16T17:20:43.789Z,100.00
2019-01-16T17:23:28.225Z,100.00
2019-01-16T17:25:58.857Z,100.00
2019-01-16T17:28:29.634Z,100.00
2019-01-16T17:31:12.753Z,100.00
2019-01-16T17:33:52.578Z,100.00
2019-01-16T17:36:36.773Z,100.00
2019-01-16T17:39:07.740Z,100.00
2019-01-16T17:41:47.399Z,100.00
2019-01-16T17:44:17.953Z,100.00
2019-01-16T17:46:45.669Z,100.00
2019-01-16T17:49:19.478Z,100.00
2019-01-16T17:51:47.231Z,100.00
2019-01-16T17:54:17.950Z,100.00
2019-01-16T17:57:02.499Z,100.00
2019-01-16T17:59:33.128Z,100.00
2019-01-16T18:02:09.586Z,100.00
2019-01-16T18:04:40.127Z,100.00
2019-01-16T18:07:10.662Z,100.00
2019-01-16T18:09:56.539Z,100.00
2019-01-16T18:12:29.800Z,100.00
2019-01-16T18:15:06.445Z,100.00
2019-01-16T18:17:43.013Z,100.00
2019-01-16T18:20:25.045Z,100.00
2019-01-16T18:22:58.370Z,100.00
2019-01-16T18:25:28.887Z,100.00
2019-01-16T18:27:56.625Z,100.00
2019-01-16T18:30:30.470Z,100.00
2019-01-16T18:32:58.197Z,100.00
2019-01-16T18:35:25.952Z,100.00
2019-01-16T18:37:53.705Z,100.00
2019-01-16T18:40:36.857Z,100.00
2019-01-16T18:43:07.406Z,100.00
2019-01-16T18:45:44.222Z,100.00
2019-01-16T18:48:14.812Z,100.00
2019-01-16T18:50:45.062Z,100.00
2019-01-16T18:53:24.705Z,100.00
2019-01-16T18:55:55.243Z,100.00
2019-01-16T18:58:22.967Z,100.00
2019-01-16T19:01:07.637Z,100.00
2019-01-16T19:03:38.405Z,100.00
2019-01-16T19:06:09.196Z,100.00
2019-01-16T19:08:53.557Z,100.00
2019-01-16T19:11:24.090Z,100.00
2019-01-16T19:13:57.605Z,100.00
2019-01-16T19:16:25.446Z,100.00
2019-01-16T19:18:55.927Z,100.00
2019-01-16T19:21:23.675Z,100.00
2019-01-16T19:23:57.618Z,100.00
2019-01-16T19:26:42.129Z,100.00
2019-01-16T19:29:12.632Z,100.00
2019-01-16T19:31:43.171Z,100.00
2019-01-16T19:34:28.850Z,100.00
2019-01-16T19:36:59.664Z,100.00
2019-01-16T19:39:44.242Z,100.00
2019-01-16T19:42:27.029Z,100.00
2019-01-16T19:45:11.569Z,100.00
2019-01-16T19:47:42.084Z,100.00
2019-01-16T19:50:25.705Z,100.00
2019-01-16T19:53:10.032Z,100.00
2019-01-16T19:55:49.795Z,100.00
2019-01-16T19:58:17.641Z,100.00
2019-01-16T20:00:51.402Z,100.00
2019-01-16T20:03:34.291Z,100.00
2019-01-16T20:06:04.999Z,100.00
2019-01-16T20:08:35.739Z,100.00
2019-01-16T20:11:12.664Z,100.00
2019-01-16T20:13:46.302Z,100.00
2019-01-16T20:16:14.133Z,100.00
2019-01-16T20:18:47.705Z,100.00
2019-01-16T20:21:30.301Z,100.00
2019-01-16T20:24:07.323Z,100.00
2019-01-16T20:26:44.302Z,100.00
2019-01-16T20:29:28.604Z,100.00
2019-01-16T20:32:12.954Z,100.00
2019-01-16T20:34:57.331Z,100.00
2019-01-16T20:37:25.177Z,100.00
2019-01-16T20:39:58.902Z,100.00
2019-01-16T20:42:26.782Z,100.00
2019-01-16T20:45:06.529Z,100.00
2019-01-16T20:47:37.035Z,100.00
2019-01-16T20:50:16.807Z,100.00
2019-01-16T20:52:44.637Z,100.00
2019-01-16T20:55:12.805Z,100.00
2019-01-16T20:57:52.472Z,100.00
2019-01-16T21:00:20.309Z,100.00
2019-01-16T21:03:06.155Z,100.00
2019-01-16T21:05:46.275Z,100.00
2019-01-16T21:08:16.778Z,100.00
2019-01-16T21:10:44.571Z,100.00
2019-01-16T21:13:12.316Z,100.00
2019-01-16T21:15:52.099Z,100.00
2019-01-16T21:18:25.383Z,100.00
2019-01-16T21:20:56.256Z,100.00
2019-01-16T21:23:24.047Z,100.00
2019-01-16T21:26:00.822Z,100.00
2019-01-16T21:28:28.561Z,100.00
2019-01-16T21:31:02.621Z,100.00
2019-01-16T21:33:42.445Z,100.00
2019-01-16T21:36:16.456Z,100.00
2019-01-16T21:39:01.111Z,100.00
2019-01-16T21:41:34.695Z,100.00
2019-01-16T21:44:02.410Z,100.00
2019-01-16T21:46:35.687Z,100.00
2019-01-16T21:49:12.062Z,100.00
2019-01-16T21:51:58.190Z,100.00
2019-01-16T21:54:31.835Z,100.00
2019-01-16T21:57:16.352Z,100.00
2019-01-16T21:59:44.099Z,100.00
2019-01-16T22:02:17.876Z,100.00
2019-01-16T22:05:00.991Z,100.00
2019-01-16T22:07:31.540Z,100.00
2019-01-16T22:10:16.102Z,100.00
2019-01-16T22:12:43.855Z,100.00
2019-01-16T22:15:31.739Z,100.00
2019-01-16T22:18:11.559Z,100.00
2019-01-16T22:20:39.288Z,100.00
2019-01-16T22:23:19.043Z,100.00
2019-01-16T22:25:46.761Z,100.00
2019-01-16T22:28:31.057Z,100.00
2019-01-16T22:31:06.647Z,100.00
2019-01-16T22:33:40.141Z,100.00
2019-01-16T22:36:10.889Z,100.00
2019-01-16T22:38:51.133Z,100.00
2019-01-16T22:41:21.845Z,100.00
2019-01-16T22:43:52.248Z,100.00
2019-01-16T22:46:28.887Z,100.00
2019-01-16T22:49:08.679Z,100.00
2019-01-16T22:51:36.457Z,100.00
2019-01-16T22:54:13.558Z,100.00
2019-01-16T22:56:53.173Z,100.00
2019-01-16T22:59:37.598Z,100.00
2019-01-16T23:02:17.480Z,100.00
2019-01-16T23:04:48.070Z,100.00
2019-01-16T23:07:18.561Z,100.00
2019-01-16T23:09:46.392Z,100.00
2019-01-16T23:12:31.160Z,100.00
2019-01-16T23:15:07.729Z,100.00
2019-01-16T23:17:38.246Z,100.00
2019-01-16T23:20:11.174Z,100.00
2019-01-16T23:22:55.328Z,100.00
2019-01-16T23:25:39.608Z,100.00
2019-01-16T23:28:07.335Z,100.00
2019-01-16T23:30:35.077Z,100.00
2019-01-16T23:33:02.883Z,100.00
2019-01-16T23:35:36.455Z,100.00
2019-01-16T23:38:04.273Z,100.00
2019-01-16T23:40:31.993Z,100.00
2019-01-16T23:43:12.010Z,100.00
2019-01-16T23:45:39.762Z,100.00
2019-01-16T23:48:16.454Z,100.00
2019-01-16T23:50:56.235Z,100.00
2019-01-16T23:53:40.863Z,100.00
2019-01-16T23:56:14.411Z,100.00
2019-01-16T23:58:51.298Z,100.00
